createdAt,value
2017-07-30T00:02:05.920Z,58.26
2017-07-30T00:04:33.440Z,58.21
2017-07-30T00:07:00.904Z,58.20
2017-07-30T00:09:28.409Z,58.10
2017-07-30T00:11:55.884Z,58.00
2017-07-30T00:14:23.389Z,57.94
2017-07-30T00:16:50.863Z,57.86
2017-07-30T00:19:18.351Z,57.86
2017-07-30T00:21:45.831Z,57.89
2017-07-30T00:24:13.302Z,57.85
2017-07-30T00:26:40.782Z,58.20
2017-07-30T00:29:08.247Z,57.95
2017-07-30T00:31:35.758Z,57.94
2017-07-30T00:34:03.204Z,57.98
2017-07-30T00:36:31.022Z,58.36
2017-07-30T00:38:58.503Z,58.08
2017-07-30T00:41:25.960Z,58.03
2017-07-30T00:43:53.447Z,58.09
2017-07-30T00:46:20.903Z,58.18
2017-07-30T00:48:48.386Z,58.37
2017-07-30T00:51:15.853Z,58.16
2017-07-30T00:53:43.686Z,58.00
2017-07-30T00:56:11.149Z,57.99
2017-07-30T00:58:38.598Z,58.00
2017-07-30T01:01:06.073Z,57.91
2017-07-30T01:03:33.538Z,57.86
2017-07-30T01:06:01.025Z,58.29
2017-07-30T01:08:28.499Z,57.98
2017-07-30T01:10:56.115Z,57.96
2017-07-30T01:13:23.597Z,57.90
2017-07-30T01:15:51.065Z,57.96
2017-07-30T01:18:18.561Z,57.91
2017-07-30T01:20:47.131Z,57.88
2017-07-30T01:23:14.605Z,57.83
2017-07-30T01:25:42.100Z,57.82
2017-07-30T01:28:09.581Z,57.73
2017-07-30T01:30:37.056Z,57.78
2017-07-30T01:33:04.545Z,57.79
2017-07-30T01:35:32.031Z,57.79
2017-07-30T01:37:59.511Z,57.84
2017-07-30T01:40:27.014Z,58.06
2017-07-30T01:42:54.491Z,58.01
2017-07-30T01:45:21.948Z,57.76
2017-07-30T01:47:49.546Z,57.92
2017-07-30T01:50:17.015Z,57.95
2017-07-30T01:52:44.475Z,57.75
2017-07-30T01:55:12.068Z,57.96
2017-07-30T01:57:39.560Z,57.75
2017-07-30T02:00:07.034Z,57.69
2017-07-30T02:02:34.574Z,57.77
2017-07-30T02:05:02.061Z,57.88
2017-07-30T02:07:29.523Z,57.69
2017-07-30T02:09:57.186Z,57.69
2017-07-30T02:12:24.643Z,57.73
2017-07-30T02:14:52.124Z,57.65
2017-07-30T02:17:19.601Z,57.83
2017-07-30T02:19:47.061Z,57.65
2017-07-30T02:22:14.552Z,57.63
2017-07-30T02:24:42.023Z,57.72
2017-07-30T02:27:09.529Z,57.70
2017-07-30T02:29:37.010Z,57.70
2017-07-30T02:32:04.988Z,57.64
2017-07-30T02:34:32.455Z,57.62
2017-07-30T02:36:59.927Z,57.60
2017-07-30T02:39:27.417Z,57.60
2017-07-30T02:41:54.877Z,57.61
2017-07-30T02:44:22.404Z,57.59
2017-07-30T02:46:49.864Z,57.53
2017-07-30T02:49:17.369Z,57.45
2017-07-30T02:51:44.831Z,57.44
2017-07-30T02:54:12.352Z,57.46
2017-07-30T02:56:39.793Z,57.51
2017-07-30T02:59:07.276Z,57.43
2017-07-30T03:01:34.776Z,57.35
2017-07-30T03:04:02.252Z,57.36
2017-07-30T03:06:29.742Z,57.50
2017-07-30T03:08:57.254Z,58.01
2017-07-30T03:11:24.754Z,57.92
2017-07-30T03:13:52.202Z,57.58
2017-07-30T03:16:19.828Z,57.81
2017-07-30T03:18:47.298Z,57.91
2017-07-30T03:21:14.750Z,57.63
2017-07-30T03:23:42.228Z,57.75
2017-07-30T03:26:09.706Z,57.89
2017-07-30T03:28:37.674Z,57.89
2017-07-30T03:31:05.140Z,57.76
2017-07-30T03:33:32.602Z,57.74
2017-07-30T03:36:00.104Z,57.61
2017-07-30T03:38:27.822Z,57.75
2017-07-30T03:40:55.293Z,57.91
2017-07-30T03:43:22.745Z,57.52
2017-07-30T03:45:50.246Z,57.86
2017-07-30T03:48:17.727Z,57.54
2017-07-30T03:50:45.207Z,57.61
2017-07-30T03:53:12.683Z,57.63
2017-07-30T03:55:40.161Z,57.60
2017-07-30T03:58:07.623Z,57.73
2017-07-30T04:00:35.100Z,57.43
2017-07-30T04:03:02.580Z,57.34
2017-07-30T04:05:31.094Z,57.21
2017-07-30T04:07:58.546Z,57.23
2017-07-30T04:10:26.368Z,57.20
2017-07-30T04:12:53.819Z,57.30
2017-07-30T04:15:21.274Z,57.41
2017-07-30T04:17:48.740Z,57.31
2017-07-30T04:20:17.034Z,57.29
2017-07-30T04:22:44.547Z,57.32
2017-07-30T04:25:12.019Z,57.30
2017-07-30T04:27:39.622Z,57.39
2017-07-30T04:30:07.101Z,57.19
2017-07-30T04:32:34.550Z,57.28
2017-07-30T04:35:02.037Z,57.28
2017-07-30T04:37:29.494Z,57.38
2017-07-30T04:39:57.102Z,57.29
2017-07-30T04:42:24.558Z,57.20
2017-07-30T04:44:52.018Z,57.05
2017-07-30T04:47:19.506Z,57.20
2017-07-30T04:49:46.982Z,57.40
2017-07-30T04:52:14.451Z,57.41
2017-07-30T04:54:41.922Z,57.35
2017-07-30T04:57:09.374Z,57.25
2017-07-30T04:59:36.828Z,57.24
2017-07-30T05:02:04.322Z,57.20
2017-07-30T05:04:31.798Z,57.18
2017-07-30T05:06:59.273Z,57.11
2017-07-30T05:09:26.734Z,57.11
2017-07-30T05:11:54.230Z,57.03
2017-07-30T05:14:21.719Z,57.05
2017-07-30T05:16:49.312Z,56.87
2017-07-30T05:19:16.775Z,57.04
2017-07-30T05:21:44.249Z,56.87
2017-07-30T05:24:11.759Z,56.85
2017-07-30T05:26:39.231Z,56.80
2017-07-30T05:29:06.721Z,56.80
2017-07-30T05:31:34.243Z,56.75
2017-07-30T05:34:01.735Z,56.79
2017-07-30T05:36:29.199Z,56.91
2017-07-30T05:38:56.650Z,57.03
2017-07-30T05:41:24.117Z,56.78
2017-07-30T05:43:51.608Z,56.72
2017-07-30T05:46:19.078Z,56.85
2017-07-30T05:48:46.810Z,56.72
2017-07-30T05:51:14.276Z,56.68
2017-07-30T05:53:41.729Z,56.65
2017-07-30T05:56:09.335Z,56.63
2017-07-30T05:58:36.794Z,56.52
2017-07-30T06:01:04.248Z,56.48
2017-07-30T06:03:31.730Z,56.61
2017-07-30T06:05:59.181Z,56.70
2017-07-30T06:08:26.697Z,56.59
2017-07-30T06:10:54.145Z,56.84
2017-07-30T06:13:21.636Z,56.78
2017-07-30T06:15:49.088Z,56.68
2017-07-30T06:18:16.569Z,56.82
2017-07-30T06:20:44.047Z,56.87
2017-07-30T06:23:11.532Z,56.79
2017-07-30T06:25:38.993Z,56.79
2017-07-30T06:28:06.808Z,56.79
2017-07-30T06:30:34.263Z,56.92
2017-07-30T06:33:01.724Z,56.87
2017-07-30T06:35:29.605Z,56.96
2017-07-30T06:37:57.063Z,56.91
2017-07-30T06:40:24.514Z,56.97
2017-07-30T06:42:52.009Z,56.97
2017-07-30T06:45:19.494Z,56.95
2017-07-30T06:47:46.950Z,56.95
2017-07-30T06:50:14.437Z,56.95
2017-07-30T06:52:41.900Z,57.02
2017-07-30T06:55:09.431Z,56.99
2017-07-30T06:57:36.903Z,57.17
2017-07-30T07:00:04.363Z,57.06
2017-07-30T07:02:31.850Z,56.97
2017-07-30T07:04:59.321Z,57.27
2017-07-30T07:07:26.819Z,57.18
2017-07-30T07:09:54.273Z,57.17
2017-07-30T07:12:22.072Z,57.17
2017-07-30T07:14:49.560Z,57.30
2017-07-30T07:17:17.037Z,57.21
2017-07-30T07:19:44.535Z,57.10
2017-07-30T07:22:11.990Z,57.09
2017-07-30T07:24:39.470Z,57.11
2017-07-30T07:27:06.935Z,57.20
2017-07-30T07:29:34.537Z,57.32
2017-07-30T07:32:02.014Z,57.35
2017-07-30T07:34:29.477Z,57.32
2017-07-30T07:36:56.958Z,57.35
2017-07-30T07:39:24.420Z,57.46
2017-07-30T07:41:51.882Z,57.40
2017-07-30T07:44:19.378Z,57.24
2017-07-30T07:46:46.852Z,57.16
2017-07-30T07:49:14.310Z,57.25
2017-07-30T07:51:41.764Z,57.24
2017-07-30T07:54:09.263Z,57.27
2017-07-30T07:56:36.726Z,57.24
2017-07-30T07:59:04.207Z,57.25
2017-07-30T08:01:31.682Z,57.15
2017-07-30T08:03:59.184Z,57.15
2017-07-30T08:06:26.676Z,57.12
2017-07-30T08:08:54.257Z,57.09
2017-07-30T08:11:21.701Z,57.07
2017-07-30T08:13:49.173Z,57.03
2017-07-30T08:16:16.658Z,57.00
2017-07-30T08:18:44.106Z,56.99
2017-07-30T08:21:11.749Z,56.87
2017-07-30T08:23:39.229Z,57.02
2017-07-30T08:26:06.693Z,56.93
2017-07-30T08:28:34.187Z,56.97
2017-07-30T08:31:01.662Z,56.92
2017-07-30T08:33:29.122Z,56.93
2017-07-30T08:35:56.606Z,56.91
2017-07-30T08:38:24.084Z,56.95
2017-07-30T08:40:51.556Z,56.96
2017-07-30T08:43:19.275Z,56.87
2017-07-30T08:45:46.731Z,57.09
2017-07-30T08:48:14.224Z,56.71
2017-07-30T08:50:41.680Z,56.68
2017-07-30T08:53:09.155Z,56.58
2017-07-30T08:55:36.747Z,56.54
2017-07-30T08:58:04.197Z,56.56
2017-07-30T09:00:31.661Z,56.62
2017-07-30T09:02:59.171Z,56.69
2017-07-30T09:05:26.642Z,56.53
2017-07-30T09:07:54.125Z,56.67
2017-07-30T09:10:21.593Z,56.58
2017-07-30T09:12:49.045Z,56.65
2017-07-30T09:15:16.762Z,56.48
2017-07-30T09:17:44.220Z,60.31
2017-07-30T09:20:11.718Z,56.78
2017-07-30T09:22:39.213Z,56.45
2017-07-30T09:25:07.166Z,56.43
2017-07-30T09:27:34.626Z,56.45
2017-07-30T09:30:02.119Z,56.61
2017-07-30T09:32:29.610Z,56.71
2017-07-30T09:34:57.065Z,56.53
2017-07-30T09:37:24.546Z,56.65
2017-07-30T09:39:52.008Z,56.72
2017-07-30T09:42:19.615Z,56.91
2017-07-30T09:44:47.074Z,56.38
2017-07-30T09:47:14.551Z,56.30
2017-07-30T09:49:42.046Z,56.41
2017-07-30T09:52:09.513Z,56.48
2017-07-30T09:54:37.214Z,56.40
2017-07-30T09:57:04.686Z,56.48
2017-07-30T09:59:32.133Z,56.46
2017-07-30T10:01:59.641Z,56.51
2017-07-30T10:04:27.109Z,56.48
2017-07-30T10:06:54.607Z,56.49
2017-07-30T10:09:22.065Z,56.44
2017-07-30T10:11:49.541Z,56.43
2017-07-30T10:14:17.164Z,56.37
2017-07-30T10:16:45.245Z,56.28
2017-07-30T10:19:12.705Z,56.17
2017-07-30T10:21:40.327Z,56.12
2017-07-30T10:24:07.774Z,56.13
2017-07-30T10:26:35.248Z,56.02
2017-07-30T10:29:02.898Z,56.01
2017-07-30T10:31:30.395Z,55.97
2017-07-30T10:33:57.841Z,55.97
2017-07-30T10:36:25.599Z,55.94
2017-07-30T10:38:53.052Z,55.89
2017-07-30T10:41:20.501Z,55.87
2017-07-30T10:43:48.073Z,55.97
2017-07-30T10:46:15.526Z,55.92
2017-07-30T10:48:42.993Z,55.89
2017-07-30T10:51:10.493Z,55.85
2017-07-30T10:53:37.937Z,55.87
2017-07-30T10:56:05.429Z,55.91
2017-07-30T10:58:32.947Z,56.00
2017-07-30T11:01:00.422Z,55.99
2017-07-30T11:03:27.873Z,56.12
2017-07-30T11:05:55.469Z,52.77
2017-07-30T11:08:22.936Z,52.20
2017-07-30T11:10:50.416Z,52.67
2017-07-30T11:13:17.913Z,53.16
2017-07-30T11:15:45.379Z,53.46
2017-07-30T11:18:12.883Z,53.62
2017-07-30T11:20:41.766Z,54.61
2017-07-30T11:23:09.237Z,55.19
2017-07-30T11:25:36.752Z,54.19
2017-07-30T11:28:04.238Z,54.33
2017-07-30T11:30:32.391Z,54.65
2017-07-30T11:32:59.966Z,58.73
2017-07-30T11:35:27.478Z,58.22
2017-07-30T11:37:54.973Z,62.95
2017-07-30T11:40:22.484Z,63.73
2017-07-30T11:42:49.946Z,60.33
2017-07-30T11:45:17.562Z,59.07
2017-07-30T11:47:45.023Z,59.25
2017-07-30T11:50:12.495Z,59.00
2017-07-30T11:52:39.986Z,58.62
2017-07-30T11:55:07.471Z,59.21
2017-07-30T11:57:34.970Z,56.85
2017-07-30T12:00:02.426Z,56.27
2017-07-30T12:02:30.648Z,55.41
2017-07-30T12:04:58.146Z,55.84
2017-07-30T12:07:25.607Z,55.29
2017-07-30T12:09:53.125Z,54.64
2017-07-30T12:12:20.602Z,54.48
2017-07-30T12:14:48.713Z,54.16
2017-07-30T12:17:16.197Z,54.50
2017-07-30T12:19:43.695Z,54.36
2017-07-30T12:22:11.163Z,53.95
2017-07-30T12:24:38.672Z,54.31
2017-07-30T12:27:06.136Z,54.55
2017-07-30T12:29:34.033Z,54.83
2017-07-30T12:32:01.519Z,54.80
2017-07-30T12:34:29.006Z,55.35
2017-07-30T12:36:56.489Z,55.39
2017-07-30T12:39:24.001Z,55.63
2017-07-30T12:41:51.506Z,55.76
2017-07-30T12:44:18.981Z,56.33
2017-07-30T12:46:46.521Z,57.39
2017-07-30T12:49:14.000Z,58.02
2017-07-30T12:51:41.508Z,58.78
2017-07-30T12:54:09.975Z,58.27
2017-07-30T12:56:37.573Z,58.06
2017-07-30T12:59:05.087Z,58.44
2017-07-30T13:01:32.664Z,59.07
2017-07-30T13:04:00.217Z,58.77
2017-07-30T13:06:27.795Z,58.98
2017-07-30T13:08:55.438Z,58.63
2017-07-30T13:14:15.174Z,57.89
2017-07-30T13:16:42.722Z,57.62
2017-07-30T13:19:13.882Z,57.58
2017-07-30T13:21:41.480Z,57.63
2017-07-30T13:24:10.397Z,57.85
2017-07-30T13:26:38.619Z,57.63
2017-07-30T13:29:06.703Z,57.49
2017-07-30T13:31:34.205Z,57.32
2017-07-30T13:34:01.675Z,57.50
2017-07-30T13:36:29.524Z,58.04
2017-07-30T13:38:57.004Z,59.00
2017-07-30T13:41:24.475Z,59.23
2017-07-30T13:43:52.001Z,59.58
2017-07-30T13:46:19.468Z,61.36
2017-07-30T13:48:46.976Z,61.50
2017-07-30T13:51:14.468Z,61.40
2017-07-30T13:53:41.967Z,61.22
2017-07-30T13:56:09.477Z,61.74
2017-07-30T13:58:37.006Z,62.60
2017-07-30T14:01:04.501Z,62.20
2017-07-30T14:03:32.009Z,64.21
2017-07-30T14:05:59.505Z,65.86
2017-07-30T14:08:26.972Z,66.19
2017-07-30T14:10:54.483Z,68.04
2017-07-30T14:13:21.946Z,66.79
2017-07-30T14:15:49.446Z,66.50
2017-07-30T14:18:16.896Z,66.11
2017-07-30T14:20:44.397Z,64.81
2017-07-30T14:23:11.897Z,64.81
2017-07-30T14:25:39.553Z,65.91
2017-07-30T14:28:07.050Z,65.24
2017-07-30T14:30:34.537Z,64.86
2017-07-30T14:33:02.029Z,63.92
2017-07-30T14:35:29.550Z,63.46
2017-07-30T14:37:57.047Z,62.22
2017-07-30T14:40:24.520Z,62.03
2017-07-30T14:42:52.042Z,61.63
2017-07-30T14:45:19.514Z,60.85
2017-07-30T14:47:47.041Z,60.63
2017-07-30T14:50:14.513Z,60.17
2017-07-30T14:52:42.146Z,59.10
2017-07-30T14:55:09.635Z,58.64
2017-07-30T14:57:37.120Z,58.69
2017-07-30T15:00:04.671Z,58.91
2017-07-30T15:02:32.150Z,58.93
2017-07-30T15:04:59.650Z,57.92
2017-07-30T15:07:27.142Z,57.90
2017-07-30T15:09:54.638Z,58.66
2017-07-30T15:12:22.099Z,58.35
2017-07-30T15:14:49.598Z,57.65
2017-07-30T15:17:17.159Z,57.82
2017-07-30T15:19:45.427Z,57.34
2017-07-30T15:22:12.925Z,56.78
2017-07-30T15:24:40.393Z,57.05
2017-07-30T15:27:08.043Z,56.95
2017-07-30T15:29:35.509Z,56.08
2017-07-30T15:32:02.976Z,55.59
2017-07-30T15:34:30.496Z,55.02
2017-07-30T15:36:58.007Z,53.89
2017-07-30T15:39:25.458Z,54.79
2017-07-30T15:41:53.156Z,55.13
2017-07-30T15:44:20.630Z,54.97
2017-07-30T15:46:48.096Z,53.79
2017-07-30T15:49:15.649Z,54.51
2017-07-30T15:51:43.139Z,52.84
2017-07-30T15:54:10.672Z,52.28
2017-07-30T15:56:38.125Z,51.41
2017-07-30T15:59:06.723Z,51.20
2017-07-30T16:01:34.182Z,50.87
2017-07-30T16:04:01.634Z,50.71
2017-07-30T16:06:29.129Z,50.25
2017-07-30T16:08:56.593Z,49.36
2017-07-30T16:11:24.311Z,49.62
2017-07-30T16:13:51.813Z,49.02
2017-07-30T16:16:19.391Z,48.86
2017-07-30T16:18:46.896Z,50.38
2017-07-30T16:21:14.854Z,48.30
2017-07-30T16:23:42.311Z,47.89
2017-07-30T16:26:09.769Z,48.27
2017-07-30T16:28:37.266Z,48.62
2017-07-30T16:31:05.835Z,49.35
2017-07-30T16:33:33.393Z,49.20
2017-07-30T16:36:00.858Z,48.84
2017-07-30T16:38:28.339Z,48.75
2017-07-30T16:40:55.835Z,48.60
2017-07-30T16:43:23.361Z,47.53
2017-07-30T16:45:50.837Z,46.69
2017-07-30T16:48:18.453Z,46.96
2017-07-30T16:50:45.963Z,47.18
2017-07-30T16:53:13.421Z,46.49
2017-07-30T16:55:40.928Z,46.35
2017-07-30T16:58:08.399Z,46.17
2017-07-30T17:00:35.885Z,46.75
2017-07-30T17:03:03.362Z,47.79
2017-07-30T17:05:30.976Z,48.80
2017-07-30T17:07:58.443Z,48.65
2017-07-30T17:10:25.915Z,47.89
2017-07-30T17:12:53.419Z,48.95
2017-07-30T17:15:20.889Z,49.22
2017-07-30T17:17:48.391Z,50.07
2017-07-30T17:20:15.863Z,49.65
2017-07-30T17:22:43.367Z,49.99
2017-07-30T17:25:10.827Z,50.31
2017-07-30T17:27:38.355Z,50.52
2017-07-30T17:30:05.813Z,51.25
2017-07-30T17:32:33.446Z,51.60
2017-07-30T17:35:00.947Z,51.52
2017-07-30T17:37:28.412Z,51.53
2017-07-30T17:39:55.887Z,51.50
2017-07-30T17:42:23.363Z,52.47
2017-07-30T17:44:50.857Z,52.23
2017-07-30T17:47:18.346Z,52.08
2017-07-30T17:49:45.858Z,52.20
2017-07-30T17:52:13.325Z,52.22
2017-07-30T17:54:40.830Z,51.62
2017-07-30T17:57:08.268Z,51.76
2017-07-30T17:59:35.780Z,52.41
2017-07-30T18:02:03.265Z,52.80
2017-07-30T18:04:30.746Z,52.44
2017-07-30T18:06:58.283Z,52.46
2017-07-30T18:09:25.787Z,52.87
2017-07-30T18:11:53.373Z,52.74
2017-07-30T18:14:20.859Z,53.01
2017-07-30T18:16:48.510Z,53.16
2017-07-30T18:19:15.999Z,52.70
2017-07-30T18:21:44.546Z,52.89
2017-07-30T18:24:12.056Z,53.15
2017-07-30T18:26:40.361Z,53.30
2017-07-30T18:29:08.741Z,53.51
2017-07-30T18:31:36.210Z,53.64
2017-07-30T18:34:03.740Z,53.84
2017-07-30T18:36:31.215Z,53.99
2017-07-30T18:38:59.560Z,54.01
2017-07-30T18:41:27.049Z,53.71
2017-07-30T18:43:54.537Z,54.06
2017-07-30T18:46:22.953Z,54.18
2017-07-30T18:48:50.430Z,54.31
2017-07-30T18:51:17.937Z,54.34
2017-07-30T18:53:45.458Z,54.30
2017-07-30T18:56:13.754Z,54.15
2017-07-30T18:58:41.247Z,54.40
2017-07-30T19:01:08.791Z,54.30
2017-07-30T19:03:36.301Z,54.49
2017-07-30T19:06:06.195Z,54.65
2017-07-30T19:08:33.686Z,54.91
2017-07-30T19:11:01.292Z,55.20
2017-07-30T19:13:29.111Z,55.04
2017-07-30T19:15:56.569Z,55.36
2017-07-30T19:18:24.050Z,55.88
2017-07-30T19:20:51.531Z,55.75
2017-07-30T19:23:18.997Z,55.89
2017-07-30T19:25:46.567Z,56.08
2017-07-30T19:28:14.047Z,56.35
2017-07-30T19:30:41.534Z,56.47
2017-07-30T19:33:09.023Z,56.96
2017-07-30T19:35:36.494Z,57.03
2017-07-30T19:38:03.980Z,57.12
2017-07-30T19:40:31.457Z,57.36
2017-07-30T19:42:58.985Z,57.64
2017-07-30T19:45:26.484Z,57.71
2017-07-30T19:47:53.999Z,58.03
2017-07-30T19:50:22.246Z,58.36
2017-07-30T19:52:49.748Z,58.52
2017-07-30T19:55:17.250Z,58.59
2017-07-30T19:57:44.725Z,58.62
2017-07-30T20:00:12.225Z,58.82
2017-07-30T20:02:39.694Z,59.08
2017-07-30T20:05:07.232Z,59.33
2017-07-30T20:07:34.737Z,59.39
2017-07-30T20:10:02.211Z,59.71
2017-07-30T20:12:29.726Z,59.70
2017-07-30T20:14:57.193Z,59.93
2017-07-30T20:17:24.692Z,60.07
2017-07-30T20:19:52.178Z,60.22
2017-07-30T20:22:19.647Z,60.27
2017-07-30T20:24:47.130Z,60.78
2017-07-30T20:27:14.612Z,60.62
2017-07-30T20:29:42.115Z,60.28
2017-07-30T20:32:09.612Z,60.38
2017-07-30T20:34:37.120Z,60.72
2017-07-30T20:37:04.665Z,61.14
2017-07-30T20:39:33.072Z,61.17
2017-07-30T20:42:00.546Z,61.07
2017-07-30T20:44:28.026Z,61.29
2017-07-30T20:46:55.520Z,61.23
2017-07-30T20:49:22.985Z,61.41
2017-07-30T20:51:50.484Z,61.56
2017-07-30T20:54:18.011Z,61.63
2017-07-30T20:56:46.334Z,61.77
2017-07-30T20:59:13.801Z,61.98
2017-07-30T21:01:41.319Z,62.06
2017-07-30T21:04:08.789Z,62.62
2017-07-30T21:06:36.294Z,62.24
2017-07-30T21:09:03.819Z,62.24
2017-07-30T21:11:31.293Z,62.50
2017-07-30T21:13:58.785Z,62.94
2017-07-30T21:16:26.262Z,63.14
2017-07-30T21:18:54.218Z,62.80
2017-07-30T21:21:21.707Z,63.07
2017-07-30T21:23:49.173Z,63.30
2017-07-30T21:26:16.672Z,63.20
2017-07-30T21:28:44.140Z,63.35
2017-07-30T21:31:11.618Z,64.09
2017-07-30T21:33:39.127Z,62.80
2017-07-30T21:36:06.611Z,62.66
2017-07-30T21:38:34.129Z,61.80
2017-07-30T21:41:01.594Z,61.27
2017-07-30T21:43:29.109Z,61.11
2017-07-30T21:45:56.657Z,60.75
2017-07-30T21:48:24.201Z,59.33
2017-07-30T21:50:51.682Z,59.98
2017-07-30T21:53:19.190Z,60.64
2017-07-30T21:55:46.685Z,60.96
2017-07-30T21:58:14.365Z,61.10
2017-07-30T22:00:41.887Z,60.81
2017-07-30T22:03:09.366Z,61.13
2017-07-30T22:05:37.204Z,61.45
2017-07-30T22:08:04.774Z,61.74
2017-07-30T22:10:32.262Z,61.61
2017-07-30T22:12:59.717Z,61.44
2017-07-30T22:15:27.375Z,61.28
2017-07-30T22:17:54.836Z,61.41
2017-07-30T22:20:22.326Z,61.65
2017-07-30T22:22:49.886Z,61.54
2017-07-30T22:25:17.356Z,61.69
2017-07-30T22:27:44.843Z,62.10
2017-07-30T22:30:12.322Z,62.36
2017-07-30T22:32:39.812Z,62.35
2017-07-30T22:35:09.124Z,62.13
2017-07-30T22:37:36.621Z,62.18
2017-07-30T22:40:04.104Z,62.29
2017-07-30T22:42:31.566Z,62.29
2017-07-30T22:44:59.103Z,62.32
2017-07-30T22:47:27.461Z,62.52
2017-07-30T22:49:54.980Z,63.71
2017-07-30T22:52:22.483Z,64.70
2017-07-30T22:54:49.972Z,65.35
2017-07-30T22:57:17.514Z,66.05
2017-07-30T22:59:44.967Z,66.25
2017-07-30T23:02:12.457Z,66.44
2017-07-30T23:04:39.963Z,66.65
2017-07-30T23:07:07.449Z,67.11
2017-07-30T23:09:34.900Z,67.45
2017-07-30T23:12:02.386Z,67.75
2017-07-30T23:14:29.888Z,67.92
2017-07-30T23:16:58.098Z,67.93
2017-07-30T23:19:26.439Z,67.48
2017-07-30T23:21:53.931Z,66.95
2017-07-30T23:24:21.476Z,66.96
2017-07-30T23:26:48.980Z,66.85
2017-07-30T23:29:16.450Z,66.47
2017-07-30T23:31:43.949Z,66.08
2017-07-30T23:34:11.400Z,65.87
2017-07-30T23:36:38.882Z,65.83
2017-07-30T23:39:06.361Z,65.93
2017-07-30T23:41:33.900Z,65.88
2017-07-30T23:44:01.401Z,66.21
2017-07-30T23:46:28.892Z,66.71
2017-07-30T23:48:56.375Z,66.92
2017-07-30T23:51:23.880Z,67.71
2017-07-30T23:53:51.405Z,68.21
2017-07-30T23:56:18.973Z,69.35
2017-07-30T23:58:46.490Z,70.07
